Time;durP1;ratioP1;P1;durP2;ratioP2;P2;SDS_P1;SDS_P2;PMS_P1;PMS_P2;Temp;Humidity;BMP_temperature;BMP_pressure;BME280_temperature;BME280_humidity;BME280_pressure;Samples;Min_cycle;Max_cycle;Signal;HPM_P1;HPM_P2
2022/06/15 00:00:57;;;;;;;;;;;;;;;15.47;60.38;101339.34;5059243;28;19928;-81
2022/06/15 00:03:23;;;;;;;;;;;;;;;15.51;60.57;101337.50;5064723;28;19994;-80
2022/06/15 00:05:50;;;;;;;;;;;;;;;15.54;60.39;101332.16;5067304;28;19919;-81
2022/06/15 00:08:15;;;;;;;;;;;;;;;15.48;60.67;101332.34;5063565;28;19924;-81
2022/06/15 00:10:41;;;;;;;;;;;;;;;15.51;60.67;101334.88;5059991;28;20420;-81
2022/06/15 00:13:07;;;;;;;;;;;;;;;15.53;60.49;101335.66;5063884;28;19931;-81
2022/06/15 00:15:33;;;;;;;;;;;;;;;15.45;60.75;101328.06;5063156;28;20789;-81
2022/06/15 00:18:01;;;;;;;;;;;;;;;15.42;61.15;101334.25;5066177;28;19921;-81
2022/06/15 00:20:27;;;;;;;;;;;;;;;15.47;60.36;101336.72;5062196;28;19935;-81
2022/06/15 00:22:52;;;;;;;;;;;;;;;15.18;61.64;101342.03;5064395;28;19924;-81
2022/06/15 00:25:17;;;;;;;;;;;;;;;15.35;61.22;101339.72;5064688;28;20284;-81
2022/06/15 00:27:43;;;;;;;;;;;;;;;15.39;61.28;101341.34;5060681;28;20491;-81
2022/06/15 00:30:08;;;;;;;;;;;;;;;15.23;62.18;101345.34;5060883;28;19921;-81
2022/06/15 00:32:33;;;;;;;;;;;;;;;15.28;62.22;101340.81;5066176;28;19927;-81
2022/06/15 00:34:59;;;;;;;;;;;;;;;15.28;61.89;101349.53;5065034;28;20007;-81
2022/06/15 00:58:45;;;;;;;;;;;;;;;15.29;61.43;101329.44;5059538;28;20018;-80
2022/06/15 01:01:11;;;;;;;;;;;;;;;15.33;61.54;101337.16;5066844;28;19943;-81
2022/06/15 01:03:37;;;;;;;;;;;;;;;15.24;62.05;101326.13;5064507;28;20287;-81
2022/06/15 01:15:19;;;;;;;;;;;;;;;15.16;62.58;101322.88;5071100;28;20291;-77
2022/06/15 01:18:00;;;;;;;;;;;;;;;15.15;62.46;101321.19;5066612;28;19963;-76
2022/06/15 01:20:25;;;;;;;;;;;;;;;15.06;62.68;101319.72;5065186;28;20010;-76
2022/06/15 01:23:11;;;;;;;;;;;;;;;15.10;62.38;101312.59;5063693;28;19928;-76
2022/06/15 01:25:51;;;;;;;;;;;;;;;15.11;62.26;101317.78;5069425;28;20214;-76
2022/06/15 01:28:29;;;;;;;;;;;;;;;15.09;61.95;101316.13;5065053;28;19928;-77
2022/06/15 01:31:13;;;;;;;;;;;;;;;15.04;62.28;101318.00;5059596;28;19927;-76
2022/06/15 01:33:57;;;;;;;;;;;;;;;15.01;62.33;101318.97;5068783;28;19924;-76
2022/06/15 01:36:42;;;;;;;;;;;;;;;15.01;62.66;101315.50;5070266;28;19919;-77
2022/06/15 01:39:16;;;;;;;;;;;;;;;15.04;62.31;101318.00;5062259;28;20062;-77
2022/06/15 01:42:00;;;;;;;;;;;;;;;15.07;62.41;101321.41;5069987;28;19941;-77
2022/06/15 01:44:31;;;;;;;;;;;;;;;15.07;62.46;101315.31;5064327;28;19924;-77
2022/06/15 01:46:59;;;;;;;;;;;;;;;15.02;62.54;101319.84;5066846;28;19928;-76
2022/06/15 01:49:30;;;;;;;;;;;;;;;15.03;62.59;101322.41;5068872;28;19928;-77
2022/06/15 01:51:55;;;;;;;;;;;;;;;14.92;62.53;101303.56;5057360;28;19977;-76
2022/06/15 01:54:32;;;;;;;;;;;;;;;14.91;62.34;101308.84;5067127;28;20027;-77
2022/06/15 01:57:00;;;;;;;;;;;;;;;14.93;62.33;101305.28;5067652;28;19920;-76
2022/06/15 01:59:25;;;;;;;;;;;;;;;14.87;62.45;101300.22;5068864;28;19928;-76
2022/06/15 02:01:51;;;;;;;;;;;;;;;14.96;61.94;101306.94;5073854;28;19924;-77
2022/06/15 02:04:16;;;;;;;;;;;;;;;14.84;62.65;101303.78;5061355;28;19973;-77
2022/06/15 02:06:59;;;;;;;;;;;;;;;14.90;62.11;101300.13;5069521;28;20288;-77
2022/06/15 02:09:31;;;;;;;;;;;;;;;14.75;61.61;101296.22;5065520;28;19920;-76
2022/06/15 02:11:59;;;;;;;;;;;;;;;14.89;61.49;101292.34;5063282;28;19927;-76
2022/06/15 02:14:34;;;;;;;;;;;;;;;14.84;61.40;101297.72;5067363;28;20395;-76
2022/06/15 02:17:01;;;;;;;;;;;;;;;14.77;61.93;101296.16;5060479;28;19929;-76
2022/06/15 02:19:32;;;;;;;;;;;;;;;14.81;62.16;101293.44;5067798;28;19920;-76
2022/06/15 02:22:01;;;;;;;;;;;;;;;14.78;62.18;101290.03;5068395;28;19927;-76
2022/06/15 02:24:27;;;;;;;;;;;;;;;14.79;61.83;101292.63;5064318;28;19952;-77
2022/06/15 02:26:52;;;;;;;;;;;;;;;14.71;62.37;101281.47;5069161;28;19947;-76
2022/06/15 02:29:21;;;;;;;;;;;;;;;14.74;61.76;101280.56;5070110;28;19920;-76
2022/06/15 02:31:47;;;;;;;;;;;;;;;14.73;61.90;101287.53;5069828;28;19936;-76
2022/06/15 02:34:12;;;;;;;;;;;;;;;14.71;61.70;101278.88;5073810;28;19920;-76
2022/06/15 02:36:38;;;;;;;;;;;;;;;14.73;61.73;101287.53;5070222;28;20560;-76
2022/06/15 02:39:04;;;;;;;;;;;;;;;14.77;61.11;101285.69;5065726;28;19952;-76
2022/06/15 02:41:29;;;;;;;;;;;;;;;14.65;61.50;101288.69;5067599;28;19920;-76
2022/06/15 02:43:57;;;;;;;;;;;;;;;14.61;61.88;101287.91;5067284;28;20026;-76
2022/06/15 02:46:24;;;;;;;;;;;;;;;14.60;62.43;101293.16;5066504;28;19925;-76
2022/06/15 02:48:50;;;;;;;;;;;;;;;14.65;62.20;101283.44;5066169;28;19925;-77
2022/06/15 02:51:21;;;;;;;;;;;;;;;14.62;62.18;101292.22;5064461;28;19928;-76
2022/06/15 02:53:49;;;;;;;;;;;;;;;14.64;61.90;101290.44;5065979;28;19931;-76
2022/06/15 02:56:16;;;;;;;;;;;;;;;14.56;61.87;101281.09;5067883;28;19924;-76
2022/06/15 02:58:43;;;;;;;;;;;;;;;14.54;62.08;101288.09;5061259;28;19972;-76
2022/06/15 03:01:08;;;;;;;;;;;;;;;14.57;61.56;101288.88;5069018;28;19920;-76
2022/06/15 03:03:34;;;;;;;;;;;;;;;14.53;61.88;101289.88;5069725;28;19982;-76
2022/06/15 03:05:59;;;;;;;;;;;;;;;14.54;61.48;101285.50;5064113;28;19920;-76
2022/06/15 03:08:25;;;;;;;;;;;;;;;14.48;61.26;101283.06;5066335;28;19994;-76
2022/06/15 03:10:51;;;;;;;;;;;;;;;14.45;61.70;101285.75;5059167;28;20441;-76
2022/06/15 03:13:17;;;;;;;;;;;;;;;14.52;61.74;101279.47;5073041;28;20012;-76
2022/06/15 03:15:42;;;;;;;;;;;;;;;14.45;61.67;101276.16;5070291;28;19920;-76
2022/06/15 03:18:07;;;;;;;;;;;;;;;14.44;62.00;101279.69;5067680;28;19928;-76
2022/06/15 03:20:33;;;;;;;;;;;;;;;14.43;61.92;101282.34;5068176;28;19984;-76
2022/06/15 03:22:58;;;;;;;;;;;;;;;14.36;61.99;101281.66;5066955;28;20359;-76
2022/06/15 03:25:24;;;;;;;;;;;;;;;14.42;62.29;101283.22;5060362;28;19967;-76
2022/06/15 03:27:49;;;;;;;;;;;;;;;14.35;62.28;101281.72;5063963;28;19929;-77
2022/06/15 03:30:15;;;;;;;;;;;;;;;14.34;61.95;101286.06;5068681;28;20279;-76
2022/06/15 03:32:40;;;;;;;;;;;;;;;14.33;62.27;101289.59;5071985;28;19957;-76
2022/06/15 03:35:06;;;;;;;;;;;;;;;14.35;62.12;101281.72;5075790;28;20292;-76
2022/06/15 03:37:31;;;;;;;;;;;;;;;14.43;61.98;101277.13;5067033;28;20019;-76
2022/06/15 03:39:57;;;;;;;;;;;;;;;14.35;61.98;101279.97;5062554;28;20460;-76
2022/06/15 03:42:23;;;;;;;;;;;;;;;14.35;62.14;101286.94;5076955;28;21534;-76
2022/06/15 03:44:49;;;;;;;;;;;;;;;14.36;62.25;101281.66;5065052;28;19916;-76
2022/06/15 03:47:17;;;;;;;;;;;;;;;14.42;61.98;101285.84;5062556;28;19943;-76
2022/06/15 03:49:53;;;;;;;;;;;;;;;14.41;62.28;101284.16;5063162;28;20367;-76
2022/06/15 03:52:19;;;;;;;;;;;;;;;14.42;62.03;101281.47;5061645;28;19965;-76
2022/06/15 03:54:45;;;;;;;;;;;;;;;14.43;62.24;101284.97;5064871;28;19978;-76
2022/06/15 03:57:14;;;;;;;;;;;;;;;14.41;62.54;101290.25;5063987;28;19924;-76
2022/06/15 03:59:40;;;;;;;;;;;;;;;14.41;62.33;101286.78;5060559;28;19928;-76
2022/06/15 04:02:06;;;;;;;;;;;;;;;14.38;62.78;101287.72;5065250;28;19916;-76
2022/06/15 04:04:31;;;;;;;;;;;;;;;14.36;62.02;101291.25;5062995;28;19928;-76
2022/06/15 04:06:57;;;;;;;;;;;;;;;14.44;61.74;101287.53;5067250;28;20417;-76
2022/06/15 04:09:22;;;;;;;;;;;;;;;14.44;62.10;101287.53;5063562;28;19927;-76
2022/06/15 04:12:08;;;;;;;;;;;;;;;14.40;62.53;101287.66;5059043;28;19909;-76
2022/06/15 04:14:34;;;;;;;;;;;;;;;14.38;62.55;101290.34;5060928;28;20387;-76
2022/06/15 04:16:59;;;;;;;;;;;;;;;14.44;62.20;101290.16;5070538;28;20036;-76
2022/06/15 04:19:26;;;;;;;;;;;;;;;14.31;62.74;101286.16;5066004;28;19998;-76
2022/06/15 04:21:52;;;;;;;;;;;;;;;14.42;62.71;101288.47;5066994;28;19928;-76
2022/06/15 04:24:18;;;;;;;;;;;;;;;14.39;62.68;101288.53;5060229;28;20426;-76
2022/06/15 04:26:45;;;;;;;;;;;;;;;14.52;62.24;101292.53;5061830;28;20061;-76
2022/06/15 04:29:10;;;;;;;;;;;;;;;14.53;62.23;101289.88;5078515;28;19979;-76
2022/06/15 04:31:38;;;;;;;;;;;;;;;14.39;62.73;101293.78;5063585;28;20417;-76
2022/06/15 04:34:03;;;;;;;;;;;;;;;14.27;63.32;101285.38;5067276;28;19952;-76
2022/06/15 04:36:29;;;;;;;;;;;;;;;14.45;62.91;101297.06;5066521;28;19956;-76
2022/06/15 04:38:54;;;;;;;;;;;;;;;14.49;62.73;101285.66;5069517;28;19925;-76
2022/06/15 04:41:20;;;;;;;;;;;;;;;14.52;62.56;101287.31;5073895;28;19920;-77
2022/06/15 04:43:45;;;;;;;;;;;;;;;14.55;62.88;101288.09;5070720;28;19926;-76
2022/06/15 04:46:11;;;;;;;;;;;;;;;14.50;62.87;101284.72;5073168;28;20303;-76
2022/06/15 04:48:36;;;;;;;;;;;;;;;14.59;63.12;101289.69;5076639;28;20414;-76
2022/06/15 04:51:08;;;;;;;;;;;;;;;14.59;63.09;101297.53;5071874;28;19927;-76
2022/06/15 04:53:34;;;;;;;;;;;;;;;14.59;63.26;101297.53;5075600;28;20682;-76
2022/06/15 04:55:59;;;;;;;;;;;;;;;14.69;63.12;101298.13;5073960;28;20007;-77
2022/06/15 04:58:24;;;;;;;;;;;;;;;14.59;63.68;101305.38;5070863;28;19939;-78
2022/06/15 05:00:50;;;;;;;;;;;;;;;14.70;63.23;101307.69;5072175;28;19920;-78
2022/06/15 05:03:15;;;;;;;;;;;;;;;14.71;63.64;101304.19;5071114;28;19924;-78
2022/06/15 05:05:40;;;;;;;;;;;;;;;14.67;63.67;101313.88;5074109;28;20437;-77
2022/06/15 05:08:06;;;;;;;;;;;;;;;14.60;63.76;101324.53;5069043;28;20357;-78
2022/06/15 05:10:32;;;;;;;;;;;;;;;14.60;63.84;101314.06;5067709;28;20291;-78
2022/06/15 05:12:57;;;;;;;;;;;;;;;14.70;63.66;101307.69;5063316;28;19920;-78
2022/06/15 05:15:22;;;;;;;;;;;;;;;14.69;63.72;101317.28;5066739;28;19975;-78
2022/06/15 05:17:50;;;;;;;;;;;;;;;14.72;64.11;101322.44;5069530;28;19932;-78
2022/06/15 05:20:15;;;;;;;;;;;;;;;14.78;63.67;101311.81;5068985;28;19924;-78
2022/06/15 05:22:42;;;;;;;;;;;;;;;14.72;64.22;101316.34;5072859;28;20343;-78
2022/06/15 05:25:08;;;;;;;;;;;;;;;14.70;64.07;101318.16;5055602;28;19936;-78
2022/06/15 05:27:34;;;;;;;;;;;;;;;14.75;63.69;101314.53;5069049;28;19925;-78
2022/06/15 05:30:00;;;;;;;;;;;;;;;14.80;64.04;101319.59;5070416;28;19920;-78
2022/06/15 05:32:25;;;;;;;;;;;;;;;14.82;64.02;101317.81;5066583;28;19961;-78
2022/06/15 05:34:51;;;;;;;;;;;;;;;14.83;64.58;101322.13;5071581;28;19920;-78
2022/06/15 05:37:17;;;;;;;;;;;;;;;14.78;64.65;101321.44;5064752;28;19975;-78
2022/06/15 05:39:42;;;;;;;;;;;;;;;14.73;64.45;101316.31;5070697;28;20314;-78
2022/06/15 05:42:07;;;;;;;;;;;;;;;14.84;63.98;101314.25;5071879;28;20383;-78
2022/06/15 05:44:42;;;;;;;;;;;;;;;14.82;64.81;101308.22;5073491;28;20279;-78
2022/06/15 05:47:10;;;;;;;;;;;;;;;14.84;64.52;101314.25;5075326;28;19927;-76
2022/06/15 05:49:36;;;;;;;;;;;;;;;14.88;64.56;101312.41;5072037;28;19925;-76
2022/06/15 05:52:02;;;;;;;;;;;;;;;14.89;64.69;101315.91;5060794;28;19925;-78
2022/06/15 05:54:27;;;;;;;;;;;;;;;14.83;65.17;101315.16;5063163;28;19925;-77
2022/06/15 05:56:54;;;;;;;;;;;;;;;14.84;64.48;101316.88;5062192;28;19970;-78
2022/06/15 05:59:19;;;;;;;;;;;;;;;14.96;64.32;101322.63;5069977;28;19983;-78
2022/06/15 06:01:45;;;;;;;;;;;;;;;15.00;64.11;101321.66;5061442;28;19928;-78
2022/06/15 06:04:11;;;;;;;;;;;;;;;14.96;63.85;101320.88;5062545;28;19924;-78
2022/06/15 06:06:37;;;;;;;;;;;;;;;15.00;63.85;101325.13;5063489;28;20280;-78
2022/06/15 06:09:02;;;;;;;;;;;;;;;15.03;64.54;101313.72;5065845;28;19928;-79
2022/06/15 06:11:28;;;;;;;;;;;;;;;15.05;63.80;101322.34;5066037;28;19920;-78
2022/06/15 06:13:53;;;;;;;;;;;;;;;15.15;63.23;101321.19;5062449;28;19925;-76
2022/06/15 06:16:20;;;;;;;;;;;;;;;15.09;63.57;101317.00;5060231;28;19950;-77
2022/06/15 06:18:45;;;;;;;;;;;;;;;15.09;63.76;101317.00;5063486;28;19924;-76
2022/06/15 06:21:11;;;;;;;;;;;;;;;15.17;63.58;101312.38;5068162;28;19927;-76
2022/06/15 06:23:36;;;;;;;;;;;;;;;15.17;64.20;101319.38;5065455;28;20681;-76
2022/06/15 06:26:02;;;;;;;;;;;;;;;15.17;63.98;101320.22;5073269;28;19924;-76
2022/06/15 06:28:30;;;;;;;;;;;;;;;15.18;63.46;101326.31;5067846;28;20061;-76
2022/06/15 06:30:59;;;;;;;;;;;;;;;15.23;63.72;101322.66;5064530;28;19924;-76
2022/06/15 06:33:25;;;;;;;;;;;;;;;15.19;63.52;101318.41;5069844;28;19916;-76
2022/06/15 06:35:50;;;;;;;;;;;;;;;15.26;63.17;101312.09;5066787;28;19927;-76
2022/06/15 06:38:16;;;;;;;;;;;;;;;15.30;63.68;101321.53;5064372;28;19967;-76
2022/06/15 06:40:41;;;;;;;;;;;;;;;15.26;63.71;101309.47;5062128;28;19929;-76
2022/06/15 06:43:07;;;;;;;;;;;;;;;15.29;63.80;101312.00;5064059;28;19977;-76
2022/06/15 06:45:32;;;;;;;;;;;;;;;15.31;63.18;101315.41;5062001;28;19930;-76
2022/06/15 06:48:00;;;;;;;;;;;;;;;15.35;63.72;101318.78;5063059;28;19925;-76
2022/06/15 06:50:25;;;;;;;;;;;;;;;15.38;63.68;101316.06;5057616;28;19942;-76
2022/06/15 06:52:51;;;;;;;;;;;;;;;15.38;64.07;101322.16;5059261;28;19928;-76
2022/06/15 06:55:16;;;;;;;;;;;;;;;15.38;63.43;101322.16;5065067;28;19951;-76
2022/06/15 06:57:41;;;;;;;;;;;;;;;15.38;63.26;101322.16;5060882;28;19932;-76
2022/06/15 07:00:08;;;;;;;;;;;;;;;15.42;62.43;101317.69;5061942;28;20020;-76
2022/06/15 07:02:33;;;;;;;;;;;;;;;15.50;62.26;101320.06;5061680;28;19920;-76
2022/06/15 07:04:59;;;;;;;;;;;;;;;15.49;62.17;101321.81;5062340;28;19921;-76
2022/06/15 07:07:24;;;;;;;;;;;;;;;15.52;62.01;101320.84;5066039;28;19960;-76
2022/06/15 07:09:49;;;;;;;;;;;;;;;15.59;61.97;101315.38;5057095;28;19920;-76
2022/06/15 07:12:15;;;;;;;;;;;;;;;15.58;62.65;101321.50;5062371;28;20489;-76
2022/06/15 07:14:40;;;;;;;;;;;;;;;15.59;61.35;101310.16;5067097;28;19924;-76
2022/06/15 07:17:05;;;;;;;;;;;;;;;15.62;61.69;101314.41;5066288;28;19946;-76
2022/06/15 07:19:31;;;;;;;;;;;;;;;15.68;61.89;101316.84;5066402;28;19934;-76
2022/06/15 07:21:58;;;;;;;;;;;;;;;15.64;62.20;101320.44;5069180;28;20035;-76
2022/06/15 07:24:25;;;;;;;;;;;;;;;15.66;62.27;101318.66;5066683;28;19912;-77
2022/06/15 07:26:50;;;;;;;;;;;;;;;15.67;61.28;101317.72;5068781;28;20441;-76
2022/06/15 07:29:18;;;;;;;;;;;;;;;15.67;61.87;101326.44;5070670;28;20454;-76
2022/06/15 07:31:47;;;;;;;;;;;;;;;15.71;61.29;101319.34;5059573;28;19924;-77
2022/06/15 07:34:13;;;;;;;;;;;;;;;15.73;60.65;101315.78;5058278;28;19935;-76
2022/06/15 07:36:39;;;;;;;;;;;;;;;15.76;60.98;101318.31;5066018;28;19925;-76
2022/06/15 07:39:05;;;;;;;;;;;;;;;15.77;60.34;101311.31;5065765;28;19933;-76
2022/06/15 07:41:31;;;;;;;;;;;;;;;15.82;59.88;101317.25;5062380;28;19924;-77
2022/06/15 07:43:56;;;;;;;;;;;;;;;15.80;59.78;101321.69;5060639;28;19931;-77
2022/06/15 07:46:22;;;;;;;;;;;;;;;15.86;58.82;101303.16;5064959;28;20634;-76
2022/06/15 07:51:33;;;;;;;;;;;;;;;15.87;58.56;101310.94;5061406;28;19927;-76
2022/06/15 07:53:59;;;;;;;;;;;;;;;15.92;58.40;101308.19;5063757;28;19924;-76
2022/06/15 07:56:25;;;;;;;;;;;;;;;15.88;57.60;101307.44;5065079;28;20379;-76
2022/06/15 07:58:50;;;;;;;;;;;;;;;15.89;57.36;101309.16;5062785;28;19933;-76
2022/06/15 08:01:16;;;;;;;;;;;;;;;15.89;57.87;101303.06;5059334;28;19950;-77
2022/06/15 08:03:41;;;;;;;;;;;;;;;15.90;57.73;101312.59;5064830;28;19925;-76
2022/06/15 08:06:07;;;;;;;;;;;;;;;15.88;58.06;101304.81;5067802;28;19936;-76
2022/06/15 08:08:32;;;;;;;;;;;;;;;15.96;57.92;101301.91;5062141;28;20387;-76
2022/06/15 08:10:57;;;;;;;;;;;;;;;15.98;57.99;101302.72;5058963;28;19997;-76
2022/06/15 08:13:23;;;;;;;;;;;;;;;16.03;57.14;101305.19;5061996;28;19964;-76
2022/06/15 08:15:48;;;;;;;;;;;;;;;16.05;56.04;101304.22;5064515;28;20378;-76
2022/06/15 08:18:16;;;;;;;;;;;;;;;16.08;56.01;101298.88;5060020;28;19967;-76
2022/06/15 08:20:44;;;;;;;;;;;;;;;16.05;57.72;101305.97;5063697;28;19924;-79
2022/06/15 08:23:12;;;;;;;;;;;;;;;16.07;57.01;101301.56;5064803;28;19973;-79
2022/06/15 08:25:39;;;;;;;;;;;;;;;16.12;55.60;101303.09;5068128;28;20494;-79
2022/06/15 08:28:05;;;;;;;;;;;;;;;16.12;54.33;101305.72;5063460;28;21638;-79
2022/06/15 08:30:31;;;;;;;;;;;;;;;16.12;55.45;101300.47;5065139;28;19926;-78
2022/06/15 08:32:56;;;;;;;;;;;;;;;16.09;56.46;101308.44;5067610;28;19995;-78
2022/06/15 08:35:21;;;;;;;;;;;;;;;16.18;55.72;101309.88;5064898;28;19964;-78
2022/06/15 08:37:47;;;;;;;;;;;;;;;16.12;58.24;101310.97;5072291;28;19950;-79
2022/06/15 08:40:13;;;;;;;;;;;;;;;16.08;58.04;101308.47;5064033;28;19928;-79
2022/06/15 08:42:41;;;;;;;;;;;;;;;16.09;58.30;101311.06;5065681;28;20356;-79
2022/06/15 08:45:16;;;;;;;;;;;;;;;16.12;57.57;101307.47;5067339;28;19936;-79
2022/06/15 08:48:05;;;;;;;;;;;;;;;16.10;57.24;101307.56;5063203;28;19924;-79
2022/06/15 08:50:35;;;;;;;;;;;;;;;16.22;54.51;101299.25;5035182;28;19963;-79
2022/06/15 08:53:23;;;;;;;;;;;;;;;16.39;52.75;101301.25;5068486;28;19960;-79
2022/06/15 08:56:10;;;;;;;;;;;;;;;16.37;52.11;101301.28;5065754;28;19920;-79
2022/06/15 08:58:54;;;;;;;;;;;;;;;16.32;53.39;101305.00;5059028;28;19928;-78
2022/06/15 09:01:42;;;;;;;;;;;;;;;16.27;54.99;101304.31;5067153;28;19947;-78
2022/06/15 09:04:14;;;;;;;;;;;;;;;16.38;54.47;101292.53;5049574;28;19948;-78
2022/06/15 09:06:42;;;;;;;;;;;;;;;16.49;53.46;101289.53;5055051;28;19920;-76
2022/06/15 09:09:14;;;;;;;;;;;;;;;16.42;54.43;101295.91;5068894;28;19921;-76
2022/06/15 09:11:48;;;;;;;;;;;;;;;16.46;54.27;101297.50;5062383;28;19920;-76
2022/06/15 09:14:13;;;;;;;;;;;;;;;16.74;52.63;101292.97;5066302;28;19920;-76
2022/06/15 09:16:54;;;;;;;;;;;;;;;16.77;51.82;101298.09;5059811;28;20313;-76
2022/06/15 09:19:22;;;;;;;;;;;;;;;16.63;53.44;101291.63;5068729;28;19924;-76
2022/06/15 09:21:50;;;;;;;;;;;;;;;16.55;53.88;101298.94;5065734;28;20302;-76
2022/06/15 09:24:16;;;;;;;;;;;;;;;16.65;52.75;101298.50;5056734;28;19921;-77
2022/06/15 09:26:46;;;;;;;;;;;;;;;16.60;51.76;101291.72;5069963;28;19912;-76
2022/06/15 09:29:24;;;;;;;;;;;;;;;16.77;54.99;101299.84;5064908;28;19925;-77
2022/06/15 09:32:08;;;;;;;;;;;;;;;16.48;55.64;101296.53;5070847;28;19990;-77
2022/06/15 09:34:38;;;;;;;;;;;;;;;16.56;53.08;101290.13;5069354;28;19927;-77
2022/06/15 09:37:08;;;;;;;;;;;;;;;16.62;52.10;101290.75;5064503;28;19925;-77
2022/06/15 09:39:34;;;;;;;;;;;;;;;16.50;52.54;101286.84;5064192;28;19921;-77
2022/06/15 09:42:12;;;;;;;;;;;;;;;16.83;50.77;101292.59;5070063;28;19947;-77
2022/06/15 09:44:52;;;;;;;;;;;;;;;16.57;52.24;101287.47;5070306;28;20027;-77
2022/06/15 09:47:20;;;;;;;;;;;;;;;16.56;56.78;101288.38;5071103;28;19925;-77
2022/06/15 09:49:55;;;;;;;;;;;;;;;16.51;53.68;101288.56;5058704;28;19929;-77
2022/06/15 09:52:29;;;;;;;;;;;;;;;16.96;50.65;101280.72;5072242;28;19916;-77
2022/06/15 09:55:14;;;;;;;;;;;;;;;16.75;55.84;101280.69;5068501;28;19916;-77
2022/06/15 09:57:40;;;;;;;;;;;;;;;16.51;56.22;101282.44;5060394;28;19939;-77
2022/06/15 10:00:07;;;;;;;;;;;;;;;16.63;52.58;101279.38;5064524;28;19924;-77
2022/06/15 10:02:34;;;;;;;;;;;;;;;17.19;48.66;101271.06;5079297;28;20019;-77
2022/06/15 10:05:01;;;;;;;;;;;;;;;16.83;52.50;101276.88;5070504;28;19966;-77
2022/06/15 10:07:45;;;;;;;;;;;;;;;16.86;51.88;101268.88;5075125;28;20005;-77
2022/06/15 10:10:24;;;;;;;;;;;;;;;17.18;50.62;101278.09;5070587;28;19928;-77
2022/06/15 10:12:56;;;;;;;;;;;;;;;16.86;51.36;101278.50;5072660;28;19922;-77
2022/06/15 10:15:23;;;;;;;;;;;;;;;16.78;52.05;101280.59;5062834;28;19924;-77
2022/06/15 10:17:51;;;;;;;;;;;;;;;16.77;53.75;101281.47;5062399;28;19928;-77
2022/06/15 10:20:32;;;;;;;;;;;;;;;16.66;57.05;101279.25;5065554;28;19931;-78
2022/06/15 10:22:58;;;;;;;;;;;;;;;16.55;57.93;101277.94;5062829;28;19936;-78
2022/06/15 10:25:26;;;;;;;;;;;;;;;16.49;57.82;101273.78;5059594;28;20414;-81
2022/06/15 10:28:04;;;;;;;;;;;;;;;16.53;58.40;101280.63;5060591;28;20498;-81
2022/06/15 10:30:29;;;;;;;;;;;;;;;16.54;58.50;101274.47;5059220;28;19924;-76
2022/06/15 10:33:02;;;;;;;;;;;;;;;16.92;50.89;101263.38;5057447;28;19952;-76
2022/06/15 10:35:30;;;;;;;;;;;;;;;16.69;53.56;101265.19;5064770;28;19920;-81
2022/06/15 10:38:01;;;;;;;;;;;;;;;16.79;52.27;101263.94;5066577;28;20391;-76
2022/06/15 10:40:37;;;;;;;;;;;;;;;16.85;55.27;101255.78;5065210;28;19929;-76
2022/06/15 10:43:02;;;;;;;;;;;;;;;16.54;58.50;101258.72;5071946;28;19928;-81
2022/06/15 10:45:37;;;;;;;;;;;;;;;16.52;57.37;101252.69;5064636;28;19924;-80
2022/06/15 10:48:02;;;;;;;;;;;;;;;17.30;50.03;101242.59;5064288;28;20018;-81
2022/06/15 10:50:30;;;;;;;;;;;;;;;17.05;50.81;101241.00;5064522;28;20024;-79
2022/06/15 10:52:58;;;;;;;;;;;;;;;16.76;53.28;101246.50;5067315;28;19924;-79
2022/06/15 11:04:06;;;;;;;;;;;;;;;16.98;49.38;101231.66;5068380;28;20041;-77
2022/06/15 11:06:39;;;;;;;;;;;;;;;16.85;50.24;101233.03;5073268;28;19924;-78
2022/06/15 11:09:07;;;;;;;;;;;;;;;17.10;49.21;101232.06;5069899;28;20019;-78
2022/06/15 11:11:34;;;;;;;;;;;;;;;16.85;51.07;101229.56;5067952;28;19920;-78
2022/06/15 11:14:07;;;;;;;;;;;;;;;16.91;50.95;101231.94;5077109;28;20394;-78
2022/06/15 11:19:19;;;;;;;;;;;;;;;16.97;49.76;101229.94;5064665;28;19972;-78
2022/06/15 11:21:57;;;;;;;;;;;;;;;17.25;47.25;101226.19;5064800;28;19921;-77
2022/06/15 11:24:44;;;;;;;;;;;;;;;16.77;57.02;101229.00;5058542;28;19920;-77
2022/06/15 11:27:20;;;;;;;;;;;;;;;16.69;54.08;101231.94;5062024;28;19919;-77
2022/06/15 11:29:46;;;;;;;;;;;;;;;16.62;57.06;101219.94;5068932;28;20376;-77
2022/06/15 11:32:17;;;;;;;;;;;;;;;16.67;57.47;101217.16;5070014;28;19969;-76
2022/06/15 11:34:49;;;;;;;;;;;;;;;17.06;51.12;101215.56;5074778;28;20015;-76
2022/06/15 11:37:18;;;;;;;;;;;;;;;17.19;50.04;101206.28;5069936;28;20066;-76
2022/06/15 11:39:47;;;;;;;;;;;;;;;17.24;52.92;101220.06;5070914;28;19921;-76
2022/06/15 11:42:15;;;;;;;;;;;;;;;17.63;46.96;101208.84;5070377;28;19924;-77
2022/06/15 11:44:42;;;;;;;;;;;;;;;17.72;45.58;101204.06;5068423;28;20607;-76
2022/06/15 11:47:20;;;;;;;;;;;;;;;17.55;46.95;101201.28;5064913;28;19926;-76
2022/06/15 11:49:47;;;;;;;;;;;;;;;17.28;48.21;101198.03;5060345;28;20383;-76
2022/06/15 11:52:30;;;;;;;;;;;;;;;17.00;55.67;101197.44;5064568;28;19924;-76
2022/06/15 11:55:04;;;;;;;;;;;;;;;17.44;49.17;101193.00;5061832;28;20387;-76
2022/06/15 11:57:33;;;;;;;;;;;;;;;17.18;51.49;101191.44;5066563;28;19924;-76
2022/06/15 11:59:58;;;;;;;;;;;;;;;17.72;48.40;101187.41;5067091;28;19921;-76
2022/06/15 12:02:23;;;;;;;;;;;;;;;17.39;49.16;101189.69;5062674;28;20498;-76
2022/06/15 12:04:49;;;;;;;;;;;;;;;17.20;53.92;101189.63;5065118;28;19924;-76
2022/06/15 12:07:26;;;;;;;;;;;;;;;17.13;51.67;101189.94;5065447;28;20026;-76
2022/06/15 12:09:51;;;;;;;;;;;;;;;16.83;57.69;101189.41;5067276;28;19924;-76
2022/06/15 12:12:40;;;;;;;;;;;;;;;16.79;57.70;101193.09;5072665;28;19920;-77
2022/06/15 12:15:17;;;;;;;;;;;;;;;16.81;56.86;101188.63;5073797;28;19982;-76
2022/06/15 12:18:01;;;;;;;;;;;;;;;16.76;57.73;101195.84;5068791;28;19931;-76
2022/06/15 12:20:29;;;;;;;;;;;;;;;16.72;58.86;101187.22;5067596;28;20018;-76
2022/06/15 12:22:55;;;;;;;;;;;;;;;16.79;58.61;101190.47;5070250;28;19920;-76
2022/06/15 12:25:26;;;;;;;;;;;;;;;16.84;54.82;101180.63;5073555;28;19930;-76
2022/06/15 12:27:54;;;;;;;;;;;;;;;16.74;58.86;101188.00;5068609;28;19970;-76
2022/06/15 12:30:29;;;;;;;;;;;;;;;16.71;59.34;101184.66;5067989;28;19927;-76
2022/06/15 12:32:54;;;;;;;;;;;;;;;16.75;58.50;101183.63;5066396;28;19920;-76
2022/06/15 12:35:25;;;;;;;;;;;;;;;17.53;48.36;101176.84;5065303;28;19981;-75
2022/06/15 12:38:11;;;;;;;;;;;;;;;17.01;57.52;101184.28;5065085;28;20256;-76
2022/06/15 12:40:41;;;;;;;;;;;;;;;17.22;50.53;101179.06;5066897;28;19925;-76
2022/06/15 12:43:07;;;;;;;;;;;;;;;16.89;57.38;101186.53;5064391;28;20185;-76
2022/06/15 12:45:36;;;;;;;;;;;;;;;16.85;56.29;101184.94;5057419;28;19924;-77
2022/06/15 12:48:05;;;;;;;;;;;;;;;17.11;51.09;101170.78;5064941;28;19916;-76
2022/06/15 12:50:36;;;;;;;;;;;;;;;17.24;52.18;101170.19;5067303;28;20384;-76
2022/06/15 12:53:11;;;;;;;;;;;;;;;16.86;57.84;101182.28;5066700;28;19924;-77
2022/06/15 12:55:48;;;;;;;;;;;;;;;16.84;59.38;101178.00;5057761;28;19931;-77
2022/06/15 12:58:26;;;;;;;;;;;;;;;16.78;60.18;101173.00;5059102;28;20442;-76
2022/06/15 13:00:55;;;;;;;;;;;;;;;16.84;59.11;101173.63;5070537;28;19921;-76
2022/06/15 13:03:30;;;;;;;;;;;;;;;16.87;59.95;101173.50;5076326;28;19962;-77
2022/06/15 13:06:14;;;;;;;;;;;;;;;16.83;60.23;101164.03;5069460;28;19995;-76
2022/06/15 13:08:40;;;;;;;;;;;;;;;16.82;60.45;101170.19;5065165;28;19921;-77
2022/06/15 13:11:13;;;;;;;;;;;;;;;16.92;59.18;101165.44;5064637;28;19931;-76
2022/06/15 13:13:50;;;;;;;;;;;;;;;17.34;49.02;101150.50;5069760;28;19970;-80
2022/06/15 13:16:28;;;;;;;;;;;;;;;17.78;49.17;101155.63;5066340;28;19927;-80
2022/06/15 13:18:54;;;;;;;;;;;;;;;17.53;51.08;101145.34;5065871;28;20411;-80
2022/06/15 13:21:21;;;;;;;;;;;;;;;17.44;53.20;101149.19;5061237;28;19966;-80
2022/06/15 13:24:07;;;;;;;;;;;;;;;17.14;57.46;101162.78;5059826;28;19920;-80
2022/06/15 13:26:39;;;;;;;;;;;;;;;17.84;49.84;101152.72;5062007;28;19954;-80
2022/06/15 13:29:10;;;;;;;;;;;;;;;17.31;57.32;101157.66;5065584;28;19927;-80